createdAt,value
2023-02-06T00:02:06.098Z,6.80
2023-02-06T00:04:56.109Z,6.70
2023-02-06T00:07:45.950Z,6.70
2023-02-06T00:10:35.811Z,6.80
2023-02-06T00:13:25.297Z,6.70
2023-02-06T00:16:19.477Z,6.80
2023-02-06T00:19:09.575Z,6.80
2023-02-06T00:21:59.190Z,6.80
2023-02-06T00:24:49.270Z,6.70
2023-02-06T00:27:38.707Z,6.80
2023-02-06T00:30:28.649Z,6.80
2023-02-06T00:33:20.369Z,6.90
2023-02-06T00:36:10.929Z,6.80
2023-02-06T00:39:00.130Z,6.70
2023-02-06T00:41:50.697Z,6.60
2023-02-06T00:44:40.112Z,6.60
2023-02-06T00:47:42.743Z,6.60
2023-02-06T00:50:24.410Z,6.60
2023-02-06T00:53:16.483Z,6.60
2023-02-06T00:56:06.133Z,6.50
2023-02-06T00:58:56.454Z,6.60
2023-02-06T01:01:47.693Z,6.60
2023-02-06T01:04:37.360Z,6.50
2023-02-06T01:07:28.823Z,6.50
2023-02-06T01:10:18.743Z,6.60
2023-02-06T01:13:10.428Z,6.50
2023-02-06T01:16:00.630Z,6.50
2023-02-06T01:18:52.273Z,6.40
2023-02-06T01:21:41.820Z,6.40
2023-02-06T01:24:31.807Z,6.40
2023-02-06T01:27:21.615Z,6.50
2023-02-06T01:30:12.805Z,6.40
2023-02-06T01:33:02.590Z,6.40
2023-02-06T01:38:38.057Z,6.70
2023-02-06T01:41:27.470Z,6.70
2023-02-06T01:44:19.199Z,6.60
2023-02-06T01:47:11.257Z,6.60
2023-02-06T01:50:01.148Z,6.60
2023-02-06T01:52:51.356Z,6.60
2023-02-06T01:58:21.367Z,6.50
2023-02-06T02:01:12.156Z,6.50
2023-02-06T02:04:07.333Z,6.50
2023-02-06T02:07:00.539Z,6.40
2023-02-06T02:09:50.243Z,6.40
2023-02-06T02:12:41.150Z,6.40
2023-02-06T02:15:34.056Z,6.30
2023-02-06T02:18:32.977Z,6.30
2023-02-06T02:21:47.829Z,6.30
2023-02-06T02:24:51.744Z,6.20
2023-02-06T02:27:54.316Z,6.20
2023-02-06T02:30:50.494Z,6.20
2023-02-06T02:33:57.646Z,6.20
2023-02-06T02:36:48.901Z,6.20
2023-02-06T02:39:39.938Z,6.30
2023-02-06T02:42:31.239Z,6.30
2023-02-06T02:45:22.470Z,6.40
2023-02-06T02:48:14.261Z,6.40
2023-02-06T02:51:04.551Z,6.30
2023-02-06T02:53:56.003Z,6.20
2023-02-06T02:56:46.110Z,5.90
2023-02-06T02:59:37.791Z,5.60
2023-02-06T03:02:28.979Z,5.60
2023-02-06T03:08:05.631Z,5.30
2023-02-06T03:10:59.148Z,5.40
2023-02-06T03:13:54.377Z,5.50
2023-02-06T03:16:46.360Z,5.50
2023-02-06T03:19:37.298Z,5.50
2023-02-06T03:22:28.754Z,5.50
2023-02-06T03:25:20.343Z,5.30
2023-02-06T03:28:11.415Z,5.30
2023-02-06T03:33:43.373Z,5.40
2023-02-06T03:36:33.285Z,5.40
2023-02-06T03:39:23.866Z,5.40
2023-02-06T03:42:15.609Z,5.40
2023-02-06T03:45:07.453Z,5.40
2023-02-06T03:47:59.174Z,5.40
2023-02-06T03:53:29.822Z,5.40
2023-02-06T03:56:22.985Z,5.30
2023-02-06T03:59:12.934Z,5.20
2023-02-06T04:02:04.096Z,5.10
2023-02-06T04:07:35.336Z,5.20
2023-02-06T04:13:08.852Z,5.40
2023-02-06T04:18:47.357Z,5.30
2023-02-06T04:21:36.965Z,5.30
2023-02-06T04:24:28.029Z,5.30
2023-02-06T04:27:18.275Z,5.30
2023-02-06T04:32:50.194Z,5.20
2023-02-06T04:35:40.011Z,5.30
2023-02-06T04:38:31.660Z,5.30
2023-02-06T04:41:21.511Z,5.40
2023-02-06T04:46:49.730Z,5.50
2023-02-06T04:49:39.449Z,5.50
2023-02-06T04:55:08.618Z,5.40
2023-02-06T04:57:58.554Z,5.50
2023-02-06T05:00:50.156Z,5.50
2023-02-06T05:03:40.193Z,5.60
2023-02-06T05:06:31.431Z,5.60
2023-02-06T05:09:20.914Z,5.50
2023-02-06T05:12:12.639Z,5.50
2023-02-06T05:17:43.494Z,5.70
2023-02-06T05:23:42.384Z,5.60
2023-02-06T05:26:31.962Z,5.60
2023-02-06T05:29:21.849Z,5.70
2023-02-06T05:32:11.945Z,5.80
2023-02-06T05:35:02.043Z,5.80
2023-02-06T05:37:51.825Z,5.80
2023-02-06T05:43:20.494Z,5.70
2023-02-06T05:46:11.499Z,5.80
2023-02-06T05:49:01.722Z,5.80
2023-02-06T05:51:52.556Z,5.80
2023-02-06T05:54:42.296Z,5.90
2023-02-06T05:57:31.893Z,5.80
2023-02-06T06:00:22.163Z,5.80
2023-02-06T06:03:12.005Z,5.80
2023-02-06T06:06:01.994Z,5.70
2023-02-06T06:08:51.882Z,5.70
2023-02-06T06:11:41.878Z,5.70
2023-02-06T06:14:31.987Z,5.70
2023-02-06T06:20:06.256Z,5.70
2023-02-06T06:22:56.388Z,5.70
2023-02-06T06:25:48.913Z,5.70
2023-02-06T06:28:40.173Z,5.70
2023-02-06T06:31:30.598Z,5.70
2023-02-06T06:34:22.927Z,5.80
2023-02-06T06:37:12.653Z,5.70
2023-02-06T06:40:02.661Z,5.70
2023-02-06T06:42:52.549Z,5.70
2023-02-06T06:45:42.369Z,5.70
2023-02-06T06:48:33.169Z,5.70
2023-02-06T06:51:23.105Z,5.80
2023-02-06T06:54:13.079Z,5.80
2023-02-06T06:57:03.775Z,5.80
2023-02-06T07:02:44.049Z,5.90
2023-02-06T07:05:36.624Z,5.80
2023-02-06T07:08:36.466Z,5.80
2023-02-06T07:11:27.063Z,5.80
2023-02-06T07:14:17.415Z,5.80
2023-02-06T07:17:06.834Z,5.70
2023-02-06T07:19:57.057Z,5.70
2023-02-06T07:22:47.805Z,5.70
2023-02-06T07:25:43.881Z,5.70
2023-02-06T07:28:34.036Z,5.80
2023-02-06T07:34:08.849Z,5.80
2023-02-06T07:36:59.990Z,5.90
2023-02-06T07:39:50.092Z,5.90
2023-02-06T07:42:41.832Z,5.90
2023-02-06T07:45:34.171Z,5.90
2023-02-06T07:48:24.455Z,6.00
2023-02-06T07:54:27.410Z,6.10
2023-02-06T07:57:17.150Z,6.20
2023-02-06T08:00:08.839Z,6.20
2023-02-06T08:03:05.357Z,6.30
2023-02-06T08:08:54.520Z,6.30
2023-02-06T08:11:44.512Z,6.30
2023-02-06T08:14:34.557Z,6.30
2023-02-06T08:17:24.774Z,6.30
2023-02-06T08:23:04.454Z,6.40
2023-02-06T08:25:57.190Z,6.40
2023-02-06T08:28:57.832Z,6.50
2023-02-06T08:31:48.058Z,6.50
2023-02-06T08:34:40.042Z,6.50
2023-02-06T08:40:21.409Z,6.70
2023-02-06T08:43:11.746Z,6.70
2023-02-06T08:46:02.152Z,6.70
2023-02-06T08:48:57.621Z,6.70
2023-02-06T08:51:49.526Z,6.70
2023-02-06T08:54:55.910Z,6.80
2023-02-06T08:57:50.304Z,6.90
2023-02-06T09:03:27.252Z,6.90
2023-02-06T09:06:17.084Z,6.90
2023-02-06T09:09:07.696Z,6.90
2023-02-06T09:11:59.285Z,6.80
2023-02-06T09:14:49.989Z,6.90
2023-02-06T09:20:53.443Z,7.10
2023-02-06T09:23:44.490Z,7.20
2023-02-06T09:26:38.904Z,7.30
2023-02-06T09:29:29.159Z,7.40
2023-02-06T09:32:19.555Z,7.40
2023-02-06T09:35:09.851Z,7.40
2023-02-06T09:37:59.554Z,7.40
2023-02-06T09:40:49.138Z,7.40
2023-02-06T09:43:39.551Z,7.40
2023-02-06T09:46:31.665Z,7.30
2023-02-06T09:49:22.912Z,7.30
2023-02-06T09:52:21.413Z,7.40
2023-02-06T09:55:15.442Z,7.40
2023-02-06T09:58:06.564Z,7.40
2023-02-06T10:00:59.449Z,7.50
2023-02-06T10:04:14.738Z,7.60
2023-02-06T10:09:46.976Z,7.80
2023-02-06T10:12:39.122Z,7.80
2023-02-06T10:18:14.981Z,8.10
2023-02-06T10:21:07.062Z,8.10
2023-02-06T10:24:01.239Z,8.00
2023-02-06T10:26:53.166Z,8.00
2023-02-06T10:29:44.265Z,7.90
2023-02-06T10:32:37.603Z,8.00
2023-02-06T10:38:16.997Z,8.20
2023-02-06T10:57:23.424Z,8.60
2023-02-06T11:00:17.208Z,8.70
2023-02-06T11:03:18.088Z,8.80
2023-02-06T11:06:12.614Z,9.00
2023-02-06T11:09:03.504Z,9.00
2023-02-06T11:11:55.245Z,8.90
2023-02-06T11:14:48.499Z,8.80
2023-02-06T11:17:39.429Z,8.70
2023-02-06T11:20:32.329Z,8.70
2023-02-06T11:23:27.417Z,8.70
2023-02-06T11:26:24.479Z,8.80
2023-02-06T11:29:17.995Z,8.80
2023-02-06T11:32:09.135Z,8.80
2023-02-06T11:35:03.527Z,8.90
2023-02-06T11:37:55.783Z,9.00
2023-02-06T11:40:47.545Z,8.90
2023-02-06T11:43:41.849Z,8.80
2023-02-06T11:46:37.437Z,8.70
2023-02-06T11:49:29.553Z,8.60
2023-02-06T11:52:29.410Z,8.40
2023-02-06T11:55:27.065Z,8.40
2023-02-06T11:58:25.090Z,8.40
2023-02-06T12:01:20.826Z,8.50
2023-02-06T12:04:22.962Z,8.50
2023-02-06T12:07:18.003Z,8.30
2023-02-06T12:10:21.274Z,8.30
2023-02-06T12:13:12.743Z,8.30
2023-02-06T12:16:04.137Z,8.50
2023-02-06T12:18:56.268Z,8.50
2023-02-06T12:21:48.169Z,8.50
2023-02-06T12:24:41.749Z,8.70
2023-02-06T12:27:34.553Z,8.70
2023-02-06T12:30:33.850Z,8.40
2023-02-06T12:33:27.984Z,8.40
2023-02-06T12:36:21.855Z,8.30
2023-02-06T12:39:17.610Z,8.20
2023-02-06T12:42:11.854Z,8.10
2023-02-06T12:45:03.149Z,8.20
2023-02-06T12:47:55.149Z,8.10
2023-02-06T12:50:47.048Z,8.00
2023-02-06T12:53:39.592Z,8.00
2023-02-06T12:56:31.462Z,7.90
2023-02-06T12:59:28.060Z,7.90
2023-02-06T13:02:21.094Z,8.00
2023-02-06T13:05:18.027Z,7.90
2023-02-06T13:08:10.078Z,8.00
2023-02-06T13:11:04.645Z,7.90
2023-02-06T13:14:01.612Z,8.00
2023-02-06T13:17:12.088Z,7.90
2023-02-06T13:20:07.298Z,7.90
2023-02-06T13:22:59.070Z,7.90
2023-02-06T13:25:49.706Z,8.00
2023-02-06T13:29:01.055Z,8.00
2023-02-06T13:32:02.556Z,7.90
2023-02-06T13:34:59.077Z,8.00
2023-02-06T13:37:51.541Z,8.10
2023-02-06T13:40:44.193Z,8.10
2023-02-06T13:43:38.857Z,8.10
2023-02-06T13:46:32.538Z,8.10
2023-02-06T13:49:33.308Z,8.00
2023-02-06T13:52:26.346Z,7.90
2023-02-06T13:55:23.816Z,7.80
2023-02-06T13:58:45.060Z,7.90
2023-02-06T14:01:36.825Z,8.00
2023-02-06T14:04:49.976Z,7.90
2023-02-06T14:07:52.097Z,8.00
2023-02-06T14:10:54.114Z,8.00
2023-02-06T14:14:01.925Z,8.10
2023-02-06T14:16:54.250Z,8.00
2023-02-06T14:19:56.447Z,8.00
2023-02-06T14:22:50.234Z,8.10
2023-02-06T14:25:44.913Z,8.10
2023-02-06T14:28:43.255Z,8.10
2023-02-06T14:31:49.026Z,8.10
2023-02-06T14:34:49.770Z,8.10
2023-02-06T14:37:56.662Z,8.10
2023-02-06T14:40:48.848Z,8.00
2023-02-06T14:43:47.263Z,8.10
2023-02-06T14:46:42.604Z,8.00
2023-02-06T14:49:39.727Z,8.00
2023-02-06T14:52:34.421Z,7.90
2023-02-06T14:55:37.690Z,7.90
2023-02-06T14:58:52.080Z,7.90
2023-02-06T15:01:49.424Z,7.90
2023-02-06T15:04:52.548Z,7.80
2023-02-06T15:07:50.988Z,7.70
2023-02-06T15:10:42.715Z,7.80
2023-02-06T15:13:36.234Z,7.70
2023-02-06T15:16:29.286Z,7.70
2023-02-06T15:19:24.169Z,7.70
2023-02-06T15:22:25.755Z,7.70
2023-02-06T15:25:21.235Z,7.80
2023-02-06T15:28:21.456Z,7.70
2023-02-06T15:31:22.950Z,7.70
2023-02-06T15:34:17.831Z,7.70
2023-02-06T15:37:24.754Z,7.70
2023-02-06T15:40:19.673Z,7.70
2023-02-06T15:43:17.785Z,7.70
2023-02-06T15:46:15.977Z,7.70
2023-02-06T15:49:09.506Z,7.70
2023-02-06T15:52:02.226Z,7.60
2023-02-06T15:55:04.905Z,7.60
2023-02-06T15:57:56.362Z,7.60
2023-02-06T16:00:50.984Z,7.50
2023-02-06T16:03:43.947Z,7.50
2023-02-06T16:06:39.188Z,7.50
2023-02-06T16:09:36.247Z,7.40
2023-02-06T16:12:29.837Z,7.40
2023-02-06T16:15:45.833Z,7.40
2023-02-06T16:18:38.831Z,7.40
2023-02-06T16:21:33.464Z,7.40
2023-02-06T16:24:27.137Z,7.30
2023-02-06T16:27:23.311Z,7.20
2023-02-06T16:30:22.263Z,7.30
2023-02-06T16:33:18.349Z,7.30
2023-02-06T16:36:14.739Z,7.30
2023-02-06T16:39:17.168Z,7.20
2023-02-06T16:42:11.386Z,7.10
2023-02-06T16:45:04.416Z,7.10
2023-02-06T16:47:55.975Z,7.20
2023-02-06T16:50:55.348Z,7.10
2023-02-06T16:53:51.515Z,7.10
2023-02-06T16:56:44.819Z,7.10
2023-02-06T16:59:41.132Z,7.10
2023-02-06T17:02:39.376Z,7.00
2023-02-06T17:05:33.524Z,7.00
2023-02-06T17:08:29.436Z,7.00
2023-02-06T17:11:23.588Z,7.00
2023-02-06T17:14:17.462Z,7.00
2023-02-06T17:17:12.065Z,7.10
2023-02-06T17:20:04.162Z,7.00
2023-02-06T17:22:57.599Z,7.00
2023-02-06T17:25:53.514Z,7.00
2023-02-06T17:28:45.278Z,6.90
2023-02-06T17:31:39.867Z,7.00
2023-02-06T17:34:40.322Z,7.00
2023-02-06T17:37:30.174Z,7.00
2023-02-06T17:40:31.749Z,6.90
2023-02-06T17:43:23.115Z,6.90
2023-02-06T17:46:22.104Z,6.80
2023-02-06T17:49:14.563Z,6.80
2023-02-06T17:52:14.474Z,6.80
2023-02-06T17:55:06.959Z,6.80
2023-02-06T17:58:00.367Z,6.80
2023-02-06T18:00:56.097Z,6.80
2023-02-06T18:03:48.088Z,6.80
2023-02-06T18:06:38.104Z,6.80
2023-02-06T18:09:27.977Z,6.80
2023-02-06T18:12:18.073Z,6.70
2023-02-06T18:15:08.693Z,6.70
2023-02-06T18:18:00.016Z,6.70
2023-02-06T18:20:52.655Z,6.80
2023-02-06T18:23:58.829Z,6.70
2023-02-06T18:26:48.883Z,6.80
2023-02-06T18:29:49.290Z,6.70
2023-02-06T18:32:32.589Z,6.60
2023-02-06T18:35:24.776Z,6.60
2023-02-06T18:38:15.547Z,6.60
2023-02-06T18:41:05.997Z,6.60
2023-02-06T18:43:55.896Z,6.60
2023-02-06T18:46:45.663Z,6.70
2023-02-06T18:49:35.848Z,6.60
2023-02-06T18:52:25.839Z,6.60
2023-02-06T18:55:15.991Z,6.60
2023-02-06T18:58:06.270Z,6.70
2023-02-06T19:00:56.127Z,6.70
2023-02-06T19:03:51.181Z,6.60
2023-02-06T19:06:42.483Z,6.70
2023-02-06T19:09:32.105Z,6.60
2023-02-06T19:12:22.338Z,6.60
2023-02-06T19:15:12.567Z,6.70
2023-02-06T19:18:03.141Z,6.70
2023-02-06T19:20:55.852Z,6.60
2023-02-06T19:23:46.080Z,6.70
2023-02-06T19:26:36.058Z,6.60
2023-02-06T19:29:36.208Z,6.60
2023-02-06T19:32:28.345Z,6.60
2023-02-06T19:35:19.082Z,6.60
2023-02-06T19:38:09.105Z,6.70
2023-02-06T19:41:00.390Z,6.60
2023-02-06T19:43:50.787Z,6.70
2023-02-06T19:46:40.930Z,6.70
2023-02-06T19:49:30.996Z,6.70
2023-02-06T19:52:28.655Z,6.70
2023-02-06T19:58:11.482Z,6.70
2023-02-06T20:01:02.792Z,6.70
2023-02-06T20:03:53.036Z,6.70
2023-02-06T20:06:44.140Z,6.60
2023-02-06T20:09:34.417Z,6.60
2023-02-06T20:12:24.076Z,6.60
2023-02-06T20:15:15.602Z,6.60
2023-02-06T20:18:05.319Z,6.60
2023-02-06T20:20:55.449Z,6.50
2023-02-06T20:23:45.119Z,6.60
2023-02-06T20:26:37.673Z,6.70
2023-02-06T20:29:28.988Z,6.60
2023-02-06T20:32:20.212Z,6.70
2023-02-06T20:35:10.487Z,6.70
2023-02-06T20:38:02.915Z,6.60
2023-02-06T20:40:54.206Z,6.50
2023-02-06T20:43:47.963Z,6.50
2023-02-06T20:46:37.781Z,6.50
2023-02-06T20:49:28.861Z,6.50
2023-02-06T20:52:21.926Z,6.50
2023-02-06T20:55:12.022Z,6.50
2023-02-06T20:58:03.199Z,6.50
2023-02-06T21:00:53.441Z,6.40
2023-02-06T21:03:43.839Z,6.40
2023-02-06T21:06:34.996Z,6.40
2023-02-06T21:09:25.581Z,6.30
2023-02-06T21:12:15.730Z,6.40
2023-02-06T21:15:06.138Z,6.50
2023-02-06T21:17:56.124Z,6.40
2023-02-06T21:20:45.892Z,6.30
2023-02-06T21:23:39.039Z,6.30
2023-02-06T21:26:28.872Z,6.30
2023-02-06T21:29:19.073Z,6.30
2023-02-06T21:32:14.011Z,6.30
2023-02-06T21:35:01.658Z,6.20
2023-02-06T21:37:51.341Z,6.20
2023-02-06T21:40:41.212Z,6.20
2023-02-06T21:43:32.285Z,6.20
2023-02-06T21:46:22.183Z,6.10
2023-02-06T21:49:12.069Z,6.10
2023-02-06T21:52:01.898Z,6.10
2023-02-06T21:54:53.332Z,6.10
2023-02-06T21:57:43.197Z,6.20
2023-02-06T22:00:36.721Z,6.20
2023-02-06T22:03:27.388Z,6.20
2023-02-06T22:06:59.819Z,6.20
2023-02-06T22:09:59.536Z,6.10
2023-02-06T22:13:24.244Z,6.20
2023-02-06T22:16:14.831Z,6.10
2023-02-06T22:19:05.047Z,6.00
2023-02-06T22:21:54.933Z,6.00
2023-02-06T22:24:45.034Z,6.00
2023-02-06T22:27:35.198Z,5.90
2023-02-06T22:30:42.825Z,5.90
2023-02-06T22:33:38.646Z,5.90
2023-02-06T22:36:29.922Z,6.00
2023-02-06T22:39:20.002Z,6.00
2023-02-06T22:42:10.362Z,6.00
2023-02-06T22:45:00.092Z,6.00
2023-02-06T22:47:50.081Z,6.00
2023-02-06T22:50:39.958Z,6.00
2023-02-06T22:53:32.918Z,5.90
2023-02-06T22:56:31.536Z,5.90
2023-02-06T22:59:22.050Z,5.90
2023-02-06T23:02:11.955Z,5.90
2023-02-06T23:05:02.076Z,5.90
2023-02-06T23:07:51.953Z,6.00
2023-02-06T23:13:30.993Z,5.90
2023-02-06T23:16:24.199Z,5.80
2023-02-06T23:19:15.217Z,5.80
2023-02-06T23:22:05.450Z,5.70
2023-02-06T23:24:55.414Z,5.70
2023-02-06T23:27:45.047Z,5.70
2023-02-06T23:30:36.349Z,5.70
2023-02-06T23:33:28.058Z,5.70
2023-02-06T23:36:19.248Z,5.80
2023-02-06T23:39:09.342Z,5.70
2023-02-06T23:42:03.126Z,5.70
2023-02-06T23:44:53.151Z,5.70
2023-02-06T23:47:42.769Z,5.70
2023-02-06T23:50:32.503Z,5.80
2023-02-06T23:53:22.377Z,5.80
2023-02-06T23:56:13.183Z,5.70
2023-02-06T23:59:04.387Z,5.70
